createdAt,value
2022-08-16T00:01:46.068Z,20.72
2022-08-16T00:06:48.788Z,20.68
2022-08-16T00:11:52.822Z,20.64
2022-08-16T00:17:01.609Z,20.74
2022-08-16T00:22:17.713Z,20.87
2022-08-16T00:27:23.300Z,20.75
2022-08-16T00:32:25.254Z,20.60
2022-08-16T00:37:58.992Z,20.59
2022-08-16T00:42:49.134Z,20.58
2022-08-16T00:47:56.687Z,20.58
2022-08-16T00:52:58.832Z,20.56
2022-08-16T00:58:01.034Z,20.51
2022-08-16T01:03:08.114Z,20.44
2022-08-16T01:08:36.499Z,20.36
2022-08-16T01:13:40.094Z,20.31
2022-08-16T01:18:49.928Z,20.32
2022-08-16T01:24:02.785Z,20.28
2022-08-16T01:29:10.196Z,20.10
2022-08-16T01:34:23.445Z,20.05
2022-08-16T01:39:28.689Z,20.09
2022-08-16T01:44:37.651Z,19.92
2022-08-16T01:49:45.392Z,19.88
2022-08-16T01:55:05.611Z,19.72
2022-08-16T02:00:10.486Z,19.62
2022-08-16T02:05:21.327Z,19.47
2022-08-16T02:10:25.788Z,19.52
2022-08-16T02:15:29.407Z,19.51
2022-08-16T02:20:35.501Z,19.53
2022-08-16T02:25:50.823Z,19.57
2022-08-16T02:30:55.119Z,19.59
2022-08-16T02:36:00.089Z,19.55
2022-08-16T02:41:02.842Z,19.50
2022-08-16T02:46:11.174Z,19.53
2022-08-16T02:51:12.737Z,19.56
2022-08-16T02:56:16.936Z,19.59
2022-08-16T03:01:33.565Z,19.59
2022-08-16T03:06:42.699Z,19.63
2022-08-16T03:11:44.957Z,19.76
2022-08-16T03:16:59.553Z,19.83
2022-08-16T03:22:02.306Z,19.87
2022-08-16T03:27:04.140Z,19.77
2022-08-16T03:32:08.114Z,19.88
2022-08-16T03:37:09.843Z,19.84
2022-08-16T03:42:11.389Z,19.75
2022-08-16T03:47:22.502Z,19.78
2022-08-16T03:52:29.942Z,19.84
2022-08-16T03:57:35.549Z,19.87
2022-08-16T04:02:37.233Z,19.82
2022-08-16T04:07:44.159Z,19.82
2022-08-16T04:12:53.673Z,19.92
2022-08-16T04:17:58.142Z,19.84
2022-08-16T04:23:00.906Z,19.82
2022-08-16T04:28:51.900Z,19.83
2022-08-16T04:33:27.474Z,19.87
2022-08-16T04:38:30.605Z,19.88
2022-08-16T04:43:33.387Z,19.78
2022-08-16T04:48:35.512Z,19.85
2022-08-16T04:53:37.168Z,19.87
2022-08-16T04:58:45.074Z,19.86
2022-08-16T05:04:00.211Z,19.72
2022-08-16T05:09:03.474Z,19.72
2022-08-16T05:14:07.102Z,19.77
2022-08-16T05:19:11.785Z,19.82
2022-08-16T05:24:14.932Z,20.02
2022-08-16T05:30:00.142Z,20.05
2022-08-16T05:34:47.803Z,20.06
2022-08-16T05:39:55.439Z,20.11
2022-08-16T05:44:57.651Z,20.20
2022-08-16T05:49:59.819Z,20.26
2022-08-16T05:55:01.895Z,20.26
2022-08-16T06:00:10.260Z,20.24
2022-08-16T06:05:11.919Z,20.38
2022-08-16T06:10:31.976Z,20.44
2022-08-16T06:15:35.139Z,20.49
2022-08-16T06:20:37.019Z,20.54
2022-08-16T06:25:57.476Z,20.67
2022-08-16T06:31:01.351Z,20.85
2022-08-16T06:36:04.057Z,21.15
2022-08-16T06:41:13.531Z,21.44
2022-08-16T06:46:31.699Z,21.63
2022-08-16T06:51:46.571Z,21.79
2022-08-16T06:56:54.033Z,22.03
2022-08-16T07:01:58.258Z,22.26
2022-08-16T07:07:01.678Z,22.37
2022-08-16T07:12:05.631Z,22.58
2022-08-16T07:17:11.364Z,22.70
2022-08-16T07:22:37.156Z,22.80
2022-08-16T07:27:38.898Z,22.78
2022-08-16T07:32:41.760Z,22.81
2022-08-16T07:37:54.216Z,22.80
2022-08-16T07:42:55.858Z,23.18
2022-08-16T07:47:57.526Z,23.71
2022-08-16T07:53:00.287Z,24.26
2022-08-16T07:58:04.784Z,24.08
2022-08-16T08:03:06.454Z,24.13
2022-08-16T08:08:51.503Z,24.17
2022-08-16T08:13:42.142Z,24.46
2022-08-16T08:18:49.948Z,24.50
2022-08-16T08:23:57.683Z,24.53
2022-08-16T08:29:00.753Z,24.48
2022-08-16T08:34:07.233Z,24.58
2022-08-16T08:39:12.993Z,24.80
2022-08-16T08:44:29.950Z,24.96
2022-08-16T08:49:50.501Z,25.02
2022-08-16T08:54:55.178Z,25.06
2022-08-16T08:59:57.992Z,25.33
2022-08-16T09:04:59.801Z,25.56
2022-08-16T09:10:06.722Z,25.99
2022-08-16T09:15:21.839Z,26.22
2022-08-16T09:20:29.272Z,26.51
2022-08-16T09:25:33.628Z,26.65
2022-08-16T09:30:43.903Z,27.12
2022-08-16T09:35:47.618Z,27.51
2022-08-16T09:40:57.851Z,27.49
2022-08-16T09:46:01.926Z,27.58
2022-08-16T09:51:05.417Z,27.95
2022-08-16T09:56:22.854Z,28.51
2022-08-16T10:01:28.471Z,30.04
2022-08-16T10:06:33.301Z,29.14
2022-08-16T10:11:55.280Z,29.36
2022-08-16T10:17:02.407Z,31.66
2022-08-16T10:22:05.213Z,32.05
2022-08-16T10:27:26.820Z,31.57
2022-08-16T10:32:30.394Z,31.22
2022-08-16T10:37:36.255Z,31.19
2022-08-16T10:42:38.194Z,32.15
2022-08-16T10:47:42.659Z,32.01
2022-08-16T10:52:44.859Z,31.96
2022-08-16T10:57:57.276Z,32.60
2022-08-16T11:03:01.412Z,32.93
2022-08-16T11:08:07.040Z,33.09
2022-08-16T11:19:03.566Z,32.25
2022-08-16T11:23:58.933Z,31.33
2022-08-16T11:29:17.524Z,31.72
2022-08-16T11:34:21.132Z,31.95
2022-08-16T11:39:22.955Z,30.87
2022-08-16T11:44:52.145Z,30.85
2022-08-16T11:49:47.322Z,30.12
2022-08-16T11:54:56.870Z,30.47
2022-08-16T12:00:01.538Z,30.33
2022-08-16T12:05:05.410Z,31.13
2022-08-16T12:10:11.185Z,31.15
2022-08-16T12:15:14.394Z,30.00
2022-08-16T12:20:20.636Z,29.13
2022-08-16T12:25:25.666Z,28.36
2022-08-16T12:30:35.026Z,28.15
2022-08-16T12:35:40.559Z,27.88
2022-08-16T12:40:44.535Z,28.08
2022-08-16T12:45:50.002Z,28.21
2022-08-16T12:50:51.815Z,28.29
2022-08-16T12:55:53.752Z,28.55
2022-08-16T13:00:55.605Z,28.60
2022-08-16T13:05:57.755Z,29.43
2022-08-16T13:10:59.974Z,30.89
2022-08-16T13:16:15.544Z,32.32
2022-08-16T13:21:23.469Z,32.06
2022-08-16T13:26:26.318Z,31.08
2022-08-16T13:31:28.202Z,31.53
2022-08-16T13:36:48.732Z,31.61
2022-08-16T13:41:53.746Z,30.77
2022-08-16T13:46:57.328Z,29.84
2022-08-16T13:51:59.029Z,29.71
2022-08-16T13:57:01.790Z,30.27
2022-08-16T14:02:07.900Z,30.64
2022-08-16T14:07:13.226Z,30.94
2022-08-16T14:12:25.089Z,30.09
2022-08-16T14:17:28.889Z,29.69
2022-08-16T14:22:39.738Z,30.86
2022-08-16T14:27:47.456Z,31.08
2022-08-16T14:32:50.878Z,30.66
2022-08-16T14:37:57.221Z,30.99
2022-08-16T14:43:06.992Z,30.73
2022-08-16T14:48:09.291Z,30.69
2022-08-16T14:53:12.060Z,30.42
2022-08-16T14:58:19.179Z,30.28
2022-08-16T15:03:25.506Z,29.86
2022-08-16T15:08:36.786Z,29.95
2022-08-16T15:13:40.977Z,30.18
2022-08-16T15:18:42.520Z,29.91
2022-08-16T15:23:48.379Z,30.06
2022-08-16T15:28:51.052Z,30.02
2022-08-16T15:33:56.567Z,30.07
2022-08-16T15:39:05.515Z,29.80
2022-08-16T15:44:24.507Z,29.37
2022-08-16T15:49:37.195Z,29.27
2022-08-16T15:54:52.527Z,29.28
2022-08-16T16:00:04.589Z,29.29
2022-08-16T16:05:09.869Z,29.04
2022-08-16T16:10:13.157Z,28.84
2022-08-16T16:15:18.329Z,28.92
2022-08-16T16:20:27.222Z,28.68
2022-08-16T16:25:30.309Z,28.49
2022-08-16T16:30:44.521Z,28.13
2022-08-16T16:35:47.265Z,27.91
2022-08-16T16:41:02.204Z,27.81
2022-08-16T16:46:38.997Z,27.78
2022-08-16T16:51:27.862Z,27.52
2022-08-16T16:56:35.627Z,27.33
2022-08-16T17:01:59.659Z,27.25
2022-08-16T17:07:10.621Z,27.08
2022-08-16T17:12:44.598Z,27.03
2022-08-16T17:17:36.291Z,27.00
2022-08-16T17:22:57.445Z,26.97
2022-08-16T17:28:01.053Z,26.87
2022-08-16T17:33:22.586Z,26.72
2022-08-16T17:38:38.999Z,26.72
2022-08-16T17:43:46.404Z,26.41
2022-08-16T17:48:49.337Z,26.10
2022-08-16T17:53:51.039Z,25.79
2022-08-16T17:58:52.602Z,25.50
2022-08-16T18:04:08.833Z,25.22
2022-08-16T18:09:13.212Z,25.03
2022-08-16T18:14:18.837Z,24.86
2022-08-16T18:19:40.401Z,24.54
2022-08-16T18:24:41.941Z,24.39
2022-08-16T18:29:43.998Z,24.35
2022-08-16T18:34:45.867Z,24.02
2022-08-16T18:39:47.586Z,23.97
2022-08-16T18:44:49.202Z,23.87
2022-08-16T18:49:50.846Z,23.71
2022-08-16T18:55:01.769Z,23.65
2022-08-16T19:00:15.424Z,23.44
2022-08-16T19:05:24.780Z,23.26
2022-08-16T19:10:26.558Z,23.12
2022-08-16T19:15:28.791Z,23.04
2022-08-16T19:20:30.614Z,22.85
2022-08-16T19:25:46.872Z,22.75
2022-08-16T19:30:51.151Z,22.62
2022-08-16T19:35:52.704Z,22.39
2022-08-16T19:40:54.227Z,22.35
2022-08-16T19:45:56.063Z,22.21
2022-08-16T19:50:57.663Z,22.07
2022-08-16T19:55:59.227Z,21.93
2022-08-16T20:01:00.874Z,21.81
2022-08-16T20:06:02.390Z,21.73
2022-08-16T20:11:03.892Z,21.63
2022-08-16T20:16:05.771Z,21.51
2022-08-16T20:21:07.349Z,21.46
2022-08-16T20:26:08.971Z,21.32
2022-08-16T20:31:11.980Z,21.22
2022-08-16T20:36:15.944Z,21.05
2022-08-16T20:41:18.784Z,20.90
2022-08-16T20:46:20.484Z,20.87
2022-08-16T20:51:22.087Z,20.75
2022-08-16T20:56:23.601Z,20.66
2022-08-16T21:01:25.393Z,20.58
2022-08-16T21:06:53.178Z,20.36
2022-08-16T21:11:57.496Z,20.34
2022-08-16T21:16:59.519Z,20.29
2022-08-16T21:22:14.135Z,20.14
2022-08-16T21:27:17.535Z,19.97
2022-08-16T21:32:35.288Z,19.97
2022-08-16T21:37:37.886Z,19.93
2022-08-16T21:42:41.289Z,19.85
2022-08-16T21:47:43.641Z,19.81
2022-08-16T21:52:45.327Z,19.82
2022-08-16T21:57:46.894Z,19.86
2022-08-16T22:02:51.373Z,19.71
2022-08-16T22:07:57.166Z,19.67
2022-08-16T22:13:13.685Z,19.71
2022-08-16T22:18:17.112Z,19.59
2022-08-16T22:23:24.491Z,19.50
2022-08-16T22:28:26.186Z,19.40
2022-08-16T22:33:28.088Z,19.37
2022-08-16T22:38:55.204Z,19.34
2022-08-16T22:43:52.336Z,19.22
2022-08-16T22:48:54.029Z,19.24
2022-08-16T22:53:56.245Z,19.19
2022-08-16T22:58:58.865Z,19.09
2022-08-16T23:04:00.699Z,19.06
2022-08-16T23:09:02.238Z,18.97
2022-08-16T23:14:03.847Z,18.88
2022-08-16T23:19:08.771Z,18.77
2022-08-16T23:24:11.678Z,18.80
2022-08-16T23:29:16.066Z,18.69
2022-08-16T23:34:28.453Z,18.66
2022-08-16T23:39:30.164Z,18.64
2022-08-16T23:44:57.076Z,18.63
2022-08-16T23:50:00.972Z,18.54
2022-08-16T23:55:06.244Z,18.47
